SHHM weather

Public forecast

Using degrees Celsius for public forecast. Weather courtesy of forecast.io.

Closest aviation weather report (METAR) to Hospital Militar Heliport

Report is more than 6 hours old.

Closest report is Eulogio Sánchez Airport, 3.8 nm (7.0 km) SE. Retrieved 2020/08/09 22:00 UTC (11 hours ago):

SCTB 092200Z 25003KT CAVOK 15/04 Q1021

Closest aviation forecast (TAF) to Hospital Militar Heliport

Closest forecast is Comodoro Arturo Merino Benítez International Airport, 9.2 nm (17.1 km) W. Retrieved 2020/08/10 06:00 UTC (3 hours ago):

TAF COR SCEL 100436Z 1006/1106 VRB02KT 7000 NSC TX13/1018Z TN03/1010Z TEMPO 1008/1014 15007KT 4000 BR BKN010 BKN020 BECMG 1012/1014 19008KT 9999 SCT013 SCT025 BECMG 1018/1020 13004KT CAVOK BECMG 1102/1104 VRB02KT 7000 NSC